Aeroporto :
LOGIN :

Iscrizione | Disclaimer

   EN    FR    IT 

 










Sommario :    VFR   VFR Marginale   IFR   IFR Intensivo   IFR Molto Intensivo
Visibilità : 
Base nubi : 
>= 8 km
>= 3000ft
5 / 8 km
1000 / 3000 ft
1500m / 5 km
500 / 1000 ft
800 / 1500m
200 / 500 ft
< 800m
< 200 ft
Simboli :   Temporali  Nebbia  Neve Forte  Precipitazioni Forti  Vento > 20 kt
SIGMETs :   Varie  Temporali  Ghiacco  Turbolenza  Onda orograficha  Ceneri Vulcaniche






- Altitudine del aeroporto : 160 ft
- Codice IATA : LRT


LFRH - Lorient Lann Bihoue

ULTIMO METAR :
  • 250200Z AUTO 06006KT CAVOK 10/07 Q1033 NOSIG

METARs OBSOLETI :
  • 250130Z AUTO 05006KT CAVOK 10/07 Q1033 NOSIG
  • 250100Z AUTO 05006KT CAVOK 10/07 Q1033 NOSIG
  • 250030Z AUTO 05007KT CAVOK 10/07 Q1033 NOSIG
  • 250000Z AUTO 04007KT CAVOK 11/07 Q1033 NOSIG
  • 242330Z AUTO 04007KT CAVOK 11/08 Q1033 NOSIG

TAF TAF LFRH
Valido dal 25 a 00 ore il 26 a 00 ore UTC


242300Z 2500/2524 04010KT CAVOK
BECMG 2510/2512 18005KT
BECMG 2513/2515 27010KT
BECMG 2519/2521 04015KT



MetMap, La meteo Aeronautica in un colpo d'occhio ! - Copyright ORBIFLY Dicembre 2007 - Disclaimer

ORBIFLY MET'MAP TEAM :

Programmazione e sviluppo : Alexandra Zaïnal
Concezione : Baudouin d'Aumeries
Aiuto per la programmazione : Marc-Olivier Méhu
Supporto tecnico e logistico : Manuel Goepfert
Aiuto per la traduzione : Arnaldo La Scala

Contatto : metmap@orbifly.com




FONTI E CREDITI :

   NOAA